メインページ
METAR-TAF:

METAR-TAF

空港 :

サンフアン, プエルトリコ, アメリカ合衆国

ルイス・ムニョス・マリン国際空港

緯度: 18-27N, 経度: 066-00W, 海抜: 3m

現時点の気象観測

当レポートは31分前の15:56(UTC)に作成
東/北東の風 8kt
気温 29°C
湿度 74%
気圧 1014 hPa
視程: 16.1km
高度3000ftの雲はほとんどない
高度3900ftの雲はほとんどない
高度4600ftの雲はほとんどない

METAR: TJSJ 221556Z 06008KT 10SM FEW030 FEW039 FEW046 29/24 A2994 RMK AO2 SLP136 T02940244 $

時間: 12:27 (16:27 UTC)

予報

当レポートは4時間48分前の11:39(UTC)に作成
予報は22日の 12時(UTC)から 23日の 12時(UTC)まで有効
変向風 3kt
視程: 10km
高度3500ftの雲はほとんどない
22日の 1450時(UTC)から
の風 10kt
視程: 10km
高度4000ftの雲は散在している
22日の 1800時(UTC)から
東/北東の風 12kt
視程: 10km
高度2500ftの雲は散在している
高度4000ftの雲は散在している
近辺でにわか雨
22日の 2300時(UTC)から
の風 5kt
視程: 10km
高度3000ftの雲はほとんどない
高度6000ftの雲は散在している

TAF: TJSJ 221139Z 2212/2312 VRB03KT P6SM FEW035 FM221450 08010KT P6SM SCT040 FM221800 07012KT P6SM VCSH SCT025 SCT040 FM222300 10005KT P6SM FEW030 SCT060

4,000以上の空港の気象観測と天気予報(METAR報とTAF報)

利用可能な観測所は地図上に黄色い丸と赤い丸で示す。

丸の上にカーソルを重ねると観測所名を参照できる。

次にクリックすると気象観測と天気予報を参照できる。

マップの切り替え:黒色「×」印の緑ボタンをクリックして拡大、「-」印の緑ボタンをクリックして縮小、緑色の三角印をクリックして隣りの地図に切り替え


METAR-TAF: